createdAt,value
2024-01-24T00:02:22.850Z,31.20
2024-01-24T00:07:27.429Z,21.35
2024-01-24T00:12:29.631Z,32.33
2024-01-24T00:17:36.571Z,25.42
2024-01-24T00:22:43.531Z,19.63
2024-01-24T00:27:46.374Z,20.33
2024-01-24T00:32:48.749Z,27.10
2024-01-24T00:37:50.593Z,23.98
2024-01-24T00:42:54.983Z,26.80
2024-01-24T00:47:56.862Z,35.00
2024-01-24T00:53:10.059Z,30.40
2024-01-24T00:58:12.165Z,26.85
2024-01-24T01:03:16.729Z,15.05
2024-01-24T01:08:18.903Z,17.77
2024-01-24T01:13:20.933Z,23.67
2024-01-24T01:18:22.946Z,18.77
2024-01-24T01:23:27.527Z,12.70
2024-01-24T01:28:31.839Z,17.45
2024-01-24T01:33:36.342Z,17.20
2024-01-24T01:38:38.500Z,27.88
2024-01-24T01:43:40.501Z,19.08
2024-01-24T01:48:44.801Z,32.05
2024-01-24T01:53:48.993Z,28.75
2024-01-24T01:58:51.518Z,27.58
2024-01-24T02:03:56.179Z,23.33
2024-01-24T02:08:58.392Z,29.52
2024-01-24T02:14:02.959Z,22.92
2024-01-24T02:19:06.382Z,13.60
2024-01-24T02:24:10.570Z,18.30
2024-01-24T02:29:13.335Z,13.82
2024-01-24T02:34:15.191Z,15.00
2024-01-24T02:39:19.926Z,17.88
2024-01-24T02:44:21.896Z,26.00
2024-01-24T02:49:26.222Z,32.70
2024-01-24T02:54:28.147Z,26.55
2024-01-24T02:59:33.133Z,23.75
2024-01-24T03:04:35.143Z,23.48
2024-01-24T03:09:37.300Z,12.02
2024-01-24T03:14:39.165Z,15.27
2024-01-24T03:19:41.165Z,12.43
2024-01-24T03:24:45.672Z,14.77
2024-01-24T03:29:50.410Z,14.98
2024-01-24T03:34:56.494Z,31.85
2024-01-24T03:39:58.530Z,21.98
2024-01-24T03:45:02.688Z,22.50
2024-01-24T03:50:07.386Z,20.58
2024-01-24T03:55:09.433Z,15.65
2024-01-24T04:00:12.776Z,25.13
2024-01-24T04:05:16.045Z,11.73
2024-01-24T04:10:18.366Z,22.90
2024-01-24T04:15:20.568Z,24.00
2024-01-24T04:20:22.727Z,18.40
2024-01-24T04:25:24.542Z,12.25
2024-01-24T04:30:26.516Z,17.23
2024-01-24T04:35:30.840Z,16.10
2024-01-24T04:40:33.153Z,21.90
2024-01-24T04:45:35.296Z,15.57
2024-01-24T04:50:39.546Z,23.58
2024-01-24T04:55:44.093Z,37.63
2024-01-24T05:00:46.087Z,23.33
2024-01-24T05:05:50.033Z,21.17
2024-01-24T05:10:56.325Z,26.58
2024-01-24T05:16:00.795Z,14.48
2024-01-24T05:21:03.882Z,30.48
2024-01-24T05:26:05.774Z,34.53
2024-01-24T05:31:07.964Z,32.10
2024-01-24T05:36:11.625Z,23.63
2024-01-24T05:41:13.633Z,20.95
2024-01-24T05:46:15.626Z,25.00
2024-01-24T05:51:20.369Z,20.42
2024-01-24T05:56:22.274Z,28.10
2024-01-24T06:01:24.251Z,19.15
2024-01-24T06:06:26.570Z,23.83
2024-01-24T06:11:28.687Z,27.40
2024-01-24T06:16:31.734Z,22.38
2024-01-24T06:21:34.189Z,42.10
2024-01-24T06:26:37.291Z,22.58
2024-01-24T06:31:39.770Z,30.90
2024-01-24T06:36:42.517Z,31.38
2024-01-24T06:41:46.034Z,13.10
2024-01-24T06:46:48.699Z,15.88
2024-01-24T06:51:52.066Z,22.58
2024-01-24T06:56:58.029Z,30.55
2024-01-24T07:02:04.849Z,28.50
2024-01-24T07:07:07.148Z,26.45
2024-01-24T07:12:09.429Z,31.52
2024-01-24T07:17:11.539Z,34.00
2024-01-24T07:22:13.630Z,20.27
2024-01-24T07:27:17.731Z,22.83
2024-01-24T07:32:19.586Z,26.52
2024-01-24T07:37:24.040Z,23.13
2024-01-24T07:42:28.581Z,32.30
2024-01-24T07:47:31.257Z,26.75
2024-01-24T07:52:40.916Z,16.67
2024-01-24T07:57:44.783Z,19.25
2024-01-24T08:02:51.494Z,28.55
2024-01-24T08:07:53.930Z,20.15
2024-01-24T08:12:56.167Z,17.95
2024-01-24T08:17:58.157Z,14.00
2024-01-24T08:23:00.213Z,16.80
2024-01-24T08:28:05.388Z,18.08
2024-01-24T08:33:07.538Z,15.75
2024-01-24T08:38:11.146Z,17.85
2024-01-24T08:43:13.078Z,23.20
2024-01-24T08:48:19.878Z,19.00
2024-01-24T08:53:21.929Z,15.77
2024-01-24T08:58:23.951Z,46.60
2024-01-24T09:03:28.924Z,20.25
2024-01-24T09:08:31.003Z,25.75
2024-01-24T09:13:33.012Z,24.45
2024-01-24T09:18:35.383Z,26.13
2024-01-24T09:23:37.604Z,26.63
2024-01-24T09:28:42.236Z,17.25
2024-01-24T09:33:44.227Z,23.95
2024-01-24T09:38:47.017Z,44.30
2024-01-24T09:43:52.301Z,24.35
2024-01-24T09:48:54.394Z,49.45
2024-01-24T09:54:02.606Z,25.85
2024-01-24T09:59:06.274Z,27.55
2024-01-24T10:04:09.097Z,25.30
2024-01-24T10:09:11.132Z,28.33
2024-01-24T10:14:14.049Z,27.90
2024-01-24T10:19:16.389Z,25.80
2024-01-24T10:24:18.739Z,27.23
2024-01-24T10:29:22.807Z,28.17
2024-01-24T10:34:28.264Z,44.85
2024-01-24T10:39:34.795Z,24.15
2024-01-24T10:44:37.277Z,30.45
2024-01-24T10:49:40.972Z,32.58
2024-01-24T10:54:44.495Z,27.65
2024-01-24T10:59:52.201Z,14.35
2024-01-24T11:04:55.232Z,19.77
2024-01-24T11:10:21.995Z,12.85
2024-01-24T11:15:24.360Z,10.63
2024-01-24T11:20:26.968Z,14.77
2024-01-24T11:25:38.802Z,12.88
2024-01-24T11:30:41.311Z,15.98
2024-01-24T11:35:46.759Z,21.08
2024-01-24T11:41:01.942Z,15.43
2024-01-24T11:46:06.418Z,20.55
2024-01-24T11:51:10.603Z,20.25
2024-01-24T11:56:16.391Z,19.25
2024-01-24T12:01:20.994Z,17.55
2024-01-24T12:06:23.230Z,10.43
2024-01-24T12:11:25.641Z,7.25
2024-01-24T12:16:29.584Z,8.27
2024-01-24T12:21:37.308Z,10.10
2024-01-24T12:26:42.045Z,13.82
2024-01-24T12:31:47.075Z,10.95
2024-01-24T12:36:49.373Z,20.50
2024-01-24T12:41:51.349Z,13.45
2024-01-24T12:47:00.145Z,25.20
2024-01-24T12:52:04.314Z,15.88
2024-01-24T12:57:06.426Z,20.83
2024-01-24T13:02:11.075Z,27.83
2024-01-24T13:07:14.395Z,11.25
2024-01-24T13:12:19.221Z,19.38
2024-01-24T13:17:22.317Z,11.85
2024-01-24T13:22:24.194Z,18.23
2024-01-24T13:27:26.089Z,10.18
2024-01-24T13:32:28.102Z,23.10
2024-01-24T13:37:30.069Z,18.42
2024-01-24T13:42:32.048Z,14.50
2024-01-24T13:47:34.127Z,17.08
2024-01-24T13:52:36.167Z,13.60
2024-01-24T13:57:40.753Z,11.82
2024-01-24T14:02:45.303Z,24.10
2024-01-24T14:07:47.473Z,20.38
2024-01-24T14:12:49.620Z,11.52
2024-01-24T14:17:52.152Z,15.88
2024-01-24T14:22:54.092Z,11.20
2024-01-24T14:27:57.132Z,16.58
2024-01-24T14:32:59.119Z,15.77
2024-01-24T14:38:01.249Z,17.02
2024-01-24T14:43:05.797Z,17.13
2024-01-24T14:48:11.145Z,16.30
2024-01-24T14:53:13.076Z,15.07
2024-01-24T14:58:14.978Z,20.20
2024-01-24T15:03:17.040Z,31.10
2024-01-24T15:08:22.703Z,11.05
2024-01-24T15:13:28.366Z,23.88
2024-01-24T15:18:30.623Z,11.93
2024-01-24T15:23:32.601Z,18.60
2024-01-24T15:28:35.991Z,21.08
2024-01-24T15:33:42.823Z,29.23
2024-01-24T15:38:52.156Z,25.08
2024-01-24T15:48:58.939Z,27.25
2024-01-24T15:54:01.075Z,29.83
2024-01-24T15:59:02.957Z,27.77
2024-01-24T16:04:04.991Z,21.30
2024-01-24T16:09:09.969Z,28.52
2024-01-24T16:14:12.081Z,26.35
2024-01-24T16:19:14.161Z,39.63
2024-01-24T16:24:19.321Z,35.38
2024-01-24T16:29:21.140Z,37.40
2024-01-24T16:34:23.133Z,29.38
2024-01-24T16:39:25.245Z,27.92
2024-01-24T16:44:27.694Z,29.63
2024-01-24T16:49:29.763Z,35.42
2024-01-24T16:54:32.247Z,61.92
2024-01-24T16:59:37.060Z,62.20
2024-01-24T17:04:39.957Z,155.65
2024-01-24T17:09:42.560Z,90.45
2024-01-24T17:14:44.755Z,86.00
2024-01-24T17:19:46.663Z,105.47
2024-01-24T17:24:48.790Z,48.85
2024-01-24T17:29:51.138Z,57.00
2024-01-24T17:34:52.984Z,54.10
2024-01-24T17:39:55.159Z,44.70
2024-01-24T17:44:57.627Z,47.28
2024-01-24T17:49:59.837Z,31.13
2024-01-24T17:55:02.075Z,51.50
2024-01-24T18:00:07.438Z,32.30
2024-01-24T18:05:09.545Z,34.95
2024-01-24T18:10:12.361Z,40.75
2024-01-24T18:15:14.234Z,48.80
2024-01-24T18:20:16.103Z,53.42
2024-01-24T18:25:18.128Z,43.38
2024-01-24T18:30:22.517Z,49.30
2024-01-24T18:35:24.587Z,32.70
2024-01-24T18:40:28.810Z,24.90
2024-01-24T18:45:30.678Z,19.02
2024-01-24T18:50:35.073Z,27.38
2024-01-24T18:55:39.597Z,29.80
2024-01-24T19:00:44.414Z,28.08
2024-01-24T19:05:47.144Z,22.20
2024-01-24T19:10:51.371Z,27.90
2024-01-24T19:15:56.719Z,25.83
2024-01-24T19:21:03.374Z,9.63
2024-01-24T19:26:05.513Z,17.17
2024-01-24T19:31:07.479Z,18.20
2024-01-24T19:36:11.174Z,23.13
2024-01-24T19:41:15.377Z,18.02
2024-01-24T19:46:17.477Z,14.95
2024-01-24T19:51:19.826Z,33.95
2024-01-24T19:56:22.058Z,19.88
2024-01-24T20:01:25.362Z,16.75
2024-01-24T20:06:27.455Z,18.25
2024-01-24T20:11:29.466Z,20.45
2024-01-24T20:16:33.587Z,44.13
2024-01-24T20:21:41.816Z,27.17
2024-01-24T20:26:43.831Z,13.25
2024-01-24T20:31:46.251Z,11.52
2024-01-24T20:36:48.078Z,19.05
2024-01-24T20:41:50.574Z,17.55
2024-01-24T20:46:53.954Z,13.43
2024-01-24T20:51:55.881Z,34.72
2024-01-24T20:56:57.948Z,16.85
2024-01-24T21:02:02.347Z,21.75
2024-01-24T21:07:07.637Z,12.55
2024-01-24T21:12:12.538Z,10.52
2024-01-24T21:17:14.690Z,11.63
2024-01-24T21:22:18.155Z,10.98
2024-01-24T21:27:20.284Z,12.15
2024-01-24T21:32:27.150Z,15.20
2024-01-24T21:37:29.102Z,12.80
2024-01-24T21:42:30.963Z,14.02
2024-01-24T21:47:32.883Z,22.73
2024-01-24T21:52:37.100Z,20.20
2024-01-24T21:57:43.543Z,25.10
2024-01-24T22:02:47.917Z,12.68
2024-01-24T22:07:51.442Z,16.45
2024-01-24T22:12:53.544Z,16.88
2024-01-24T22:17:58.225Z,19.13
2024-01-24T22:23:00.223Z,24.17
2024-01-24T22:28:02.246Z,17.23
2024-01-24T22:33:04.399Z,8.40
2024-01-24T22:38:06.326Z,13.43
2024-01-24T22:43:08.240Z,11.60
2024-01-24T22:48:10.282Z,15.43
2024-01-24T22:53:12.060Z,21.67
2024-01-24T22:58:14.053Z,24.30
2024-01-24T23:03:16.200Z,18.60
2024-01-24T23:08:18.473Z,17.15
2024-01-24T23:13:22.881Z,26.75
2024-01-24T23:18:27.089Z,17.98
2024-01-24T23:23:29.016Z,15.10
2024-01-24T23:28:33.417Z,18.30
2024-01-24T23:33:37.901Z,16.52
2024-01-24T23:38:39.807Z,17.05
2024-01-24T23:43:41.837Z,23.63
2024-01-24T23:48:46.500Z,20.80
2024-01-24T23:53:48.875Z,14.95
2024-01-24T23:58:51.296Z,18.63
